sensor_id;sensor_type;location;lat;lon;timestamp;P1;durP1;ratioP1;P2;durP2;ratioP2
11598;SDS011;5855;48.840;9.188;2024-02-21T00:01:37;11.38;;;3.97;;
11598;SDS011;5855;48.840;9.188;2024-02-21T00:04:04;8.48;;;3.30;;
11598;SDS011;5855;48.840;9.188;2024-02-21T00:06:31;7.30;;;3.10;;
11598;SDS011;5855;48.840;9.188;2024-02-21T00:08:58;10.23;;;3.38;;
11598;SDS011;5855;48.840;9.188;2024-02-21T00:11:25;10.23;;;3.72;;
11598;SDS011;5855;48.840;9.188;2024-02-21T00:13:52;6.57;;;3.03;;
11598;SDS011;5855;48.840;9.188;2024-02-21T00:16:20;8.50;;;3.15;;
11598;SDS011;5855;48.840;9.188;2024-02-21T00:18:50;9.60;;;3.20;;
11598;SDS011;5855;48.840;9.188;2024-02-21T00:21:17;7.38;;;3.05;;
11598;SDS011;5855;48.840;9.188;2024-02-21T00:23:44;9.60;;;3.47;;
11598;SDS011;5855;48.840;9.188;2024-02-21T00:26:11;8.10;;;3.47;;
11598;SDS011;5855;48.840;9.188;2024-02-21T00:28:41;9.02;;;3.45;;
11598;SDS011;5855;48.840;9.188;2024-02-21T00:31:07;8.63;;;3.17;;
11598;SDS011;5855;48.840;9.188;2024-02-21T00:33:38;8.85;;;3.42;;
11598;SDS011;5855;48.840;9.188;2024-02-21T00:36:05;9.10;;;3.55;;
11598;SDS011;5855;48.840;9.188;2024-02-21T00:38:32;9.90;;;3.30;;
11598;SDS011;5855;48.840;9.188;2024-02-21T00:41:01;7.88;;;3.42;;
11598;SDS011;5855;48.840;9.188;2024-02-21T00:43:28;9.55;;;3.10;;
11598;SDS011;5855;48.840;9.188;2024-02-21T00:45:54;7.82;;;3.40;;
11598;SDS011;5855;48.840;9.188;2024-02-21T00:48:21;7.43;;;3.25;;
11598;SDS011;5855;48.840;9.188;2024-02-21T00:50:49;7.10;;;3.22;;
11598;SDS011;5855;48.840;9.188;2024-02-21T00:53:17;6.57;;;2.97;;
11598;SDS011;5855;48.840;9.188;2024-02-21T00:55:43;8.40;;;3.33;;
11598;SDS011;5855;48.840;9.188;2024-02-21T00:58:10;7.05;;;3.05;;
11598;SDS011;5855;48.840;9.188;2024-02-21T01:00:37;10.75;;;3.50;;
11598;SDS011;5855;48.840;9.188;2024-02-21T01:03:04;6.80;;;2.70;;
11598;SDS011;5855;48.840;9.188;2024-02-21T01:05:31;6.72;;;3.10;;
11598;SDS011;5855;48.840;9.188;2024-02-21T01:07:59;10.25;;;3.40;;
11598;SDS011;5855;48.840;9.188;2024-02-21T01:10:26;7.70;;;3.10;;
11598;SDS011;5855;48.840;9.188;2024-02-21T01:12:56;7.47;;;3.10;;
11598;SDS011;5855;48.840;9.188;2024-02-21T01:15:22;8.30;;;3.08;;
11598;SDS011;5855;48.840;9.188;2024-02-21T01:17:50;7.50;;;2.92;;
11598;SDS011;5855;48.840;9.188;2024-02-21T01:20:19;7.03;;;2.97;;
11598;SDS011;5855;48.840;9.188;2024-02-21T01:22:46;7.25;;;2.60;;
11598;SDS011;5855;48.840;9.188;2024-02-21T01:25:15;7.45;;;3.03;;
11598;SDS011;5855;48.840;9.188;2024-02-21T01:27:42;8.43;;;2.90;;
11598;SDS011;5855;48.840;9.188;2024-02-21T01:30:09;10.45;;;2.85;;
11598;SDS011;5855;48.840;9.188;2024-02-21T01:32:36;8.45;;;3.03;;
11598;SDS011;5855;48.840;9.188;2024-02-21T01:35:04;5.88;;;2.83;;
11598;SDS011;5855;48.840;9.188;2024-02-21T01:37:31;9.20;;;3.10;;
11598;SDS011;5855;48.840;9.188;2024-02-21T01:39:58;8.57;;;3.17;;
11598;SDS011;5855;48.840;9.188;2024-02-21T01:42:26;7.88;;;2.88;;
11598;SDS011;5855;48.840;9.188;2024-02-21T01:44:53;9.38;;;3.20;;
11598;SDS011;5855;48.840;9.188;2024-02-21T01:47:22;8.05;;;2.92;;
11598;SDS011;5855;48.840;9.188;2024-02-21T01:49:49;6.35;;;2.85;;
11598;SDS011;5855;48.840;9.188;2024-02-21T01:52:16;7.50;;;2.80;;
11598;SDS011;5855;48.840;9.188;2024-02-21T01:54:44;7.97;;;2.83;;
11598;SDS011;5855;48.840;9.188;2024-02-21T01:57:13;8.60;;;2.90;;
11598;SDS011;5855;48.840;9.188;2024-02-21T01:59:42;8.20;;;2.90;;
11598;SDS011;5855;48.840;9.188;2024-02-21T02:02:09;6.30;;;2.70;;
11598;SDS011;5855;48.840;9.188;2024-02-21T02:04:37;9.95;;;3.25;;
11598;SDS011;5855;48.840;9.188;2024-02-21T02:07:04;8.85;;;2.92;;
11598;SDS011;5855;48.840;9.188;2024-02-21T02:09:33;7.03;;;2.63;;
11598;SDS011;5855;48.840;9.188;2024-02-21T02:12:01;7.75;;;2.65;;
11598;SDS011;5855;48.840;9.188;2024-02-21T02:14:28;6.07;;;2.63;;
11598;SDS011;5855;48.840;9.188;2024-02-21T02:17:00;6.82;;;2.88;;
11598;SDS011;5855;48.840;9.188;2024-02-21T02:19:27;7.50;;;2.55;;
11598;SDS011;5855;48.840;9.188;2024-02-21T02:21:58;6.40;;;2.55;;
11598;SDS011;5855;48.840;9.188;2024-02-21T02:24:33;8.25;;;2.55;;
11598;SDS011;5855;48.840;9.188;2024-02-21T02:27:00;6.45;;;2.47;;
11598;SDS011;5855;48.840;9.188;2024-02-21T02:29:26;8.45;;;2.65;;
11598;SDS011;5855;48.840;9.188;2024-02-21T02:31:53;6.07;;;2.70;;
11598;SDS011;5855;48.840;9.188;2024-02-21T02:34:20;6.80;;;2.80;;
11598;SDS011;5855;48.840;9.188;2024-02-21T02:36:47;5.85;;;2.67;;
11598;SDS011;5855;48.840;9.188;2024-02-21T02:39:14;6.45;;;2.55;;
11598;SDS011;5855;48.840;9.188;2024-02-21T02:41:43;6.20;;;2.60;;
11598;SDS011;5855;48.840;9.188;2024-02-21T02:44:10;9.65;;;2.85;;
11598;SDS011;5855;48.840;9.188;2024-02-21T02:46:39;8.20;;;2.83;;
11598;SDS011;5855;48.840;9.188;2024-02-21T02:49:06;8.63;;;2.72;;
11598;SDS011;5855;48.840;9.188;2024-02-21T02:51:33;7.40;;;2.60;;
11598;SDS011;5855;48.840;9.188;2024-02-21T02:54:00;8.13;;;2.75;;
11598;SDS011;5855;48.840;9.188;2024-02-21T02:56:30;6.22;;;2.63;;
11598;SDS011;5855;48.840;9.188;2024-02-21T02:58:58;7.70;;;2.60;;
11598;SDS011;5855;48.840;9.188;2024-02-21T03:01:25;9.27;;;2.90;;
11598;SDS011;5855;48.840;9.188;2024-02-21T03:03:52;5.80;;;3.00;;
11598;SDS011;5855;48.840;9.188;2024-02-21T03:06:20;6.68;;;2.60;;
11598;SDS011;5855;48.840;9.188;2024-02-21T03:08:46;8.00;;;2.75;;
11598;SDS011;5855;48.840;9.188;2024-02-21T03:11:13;8.10;;;2.80;;
11598;SDS011;5855;48.840;9.188;2024-02-21T03:13:40;8.82;;;3.08;;
11598;SDS011;5855;48.840;9.188;2024-02-21T03:16:08;6.38;;;2.83;;
11598;SDS011;5855;48.840;9.188;2024-02-21T03:18:35;6.25;;;2.92;;
11598;SDS011;5855;48.840;9.188;2024-02-21T03:21:02;7.55;;;3.00;;
11598;SDS011;5855;48.840;9.188;2024-02-21T03:23:30;5.97;;;2.58;;
11598;SDS011;5855;48.840;9.188;2024-02-21T03:25:57;7.93;;;2.97;;
11598;SDS011;5855;48.840;9.188;2024-02-21T03:28:23;9.18;;;2.97;;
11598;SDS011;5855;48.840;9.188;2024-02-21T03:30:50;9.00;;;2.83;;
11598;SDS011;5855;48.840;9.188;2024-02-21T03:33:18;9.15;;;3.47;;
11598;SDS011;5855;48.840;9.188;2024-02-21T03:35:47;8.57;;;3.30;;
11598;SDS011;5855;48.840;9.188;2024-02-21T03:38:16;9.13;;;4.30;;
11598;SDS011;5855;48.840;9.188;2024-02-21T03:40:43;7.65;;;3.17;;
11598;SDS011;5855;48.840;9.188;2024-02-21T03:43:10;8.90;;;3.80;;
11598;SDS011;5855;48.840;9.188;2024-02-21T03:45:36;6.72;;;3.45;;
11598;SDS011;5855;48.840;9.188;2024-02-21T03:48:04;6.97;;;3.17;;
11598;SDS011;5855;48.840;9.188;2024-02-21T03:50:33;8.32;;;3.30;;
11598;SDS011;5855;48.840;9.188;2024-02-21T03:53:00;7.45;;;2.80;;
11598;SDS011;5855;48.840;9.188;2024-02-21T03:55:26;7.47;;;2.70;;
11598;SDS011;5855;48.840;9.188;2024-02-21T03:57:53;5.72;;;2.80;;
11598;SDS011;5855;48.840;9.188;2024-02-21T04:00:20;7.97;;;2.60;;
11598;SDS011;5855;48.840;9.188;2024-02-21T04:02:48;9.57;;;2.80;;
11598;SDS011;5855;48.840;9.188;2024-02-21T04:05:18;8.38;;;3.05;;
11598;SDS011;5855;48.840;9.188;2024-02-21T04:07:50;8.25;;;3.05;;
11598;SDS011;5855;48.840;9.188;2024-02-21T04:10:17;8.38;;;2.70;;
11598;SDS011;5855;48.840;9.188;2024-02-21T04:12:45;6.43;;;3.08;;
11598;SDS011;5855;48.840;9.188;2024-02-21T04:15:15;7.15;;;2.67;;
11598;SDS011;5855;48.840;9.188;2024-02-21T04:17:42;6.65;;;2.67;;
11598;SDS011;5855;48.840;9.188;2024-02-21T04:20:14;8.20;;;2.78;;
11598;SDS011;5855;48.840;9.188;2024-02-21T04:22:42;6.88;;;2.95;;
11598;SDS011;5855;48.840;9.188;2024-02-21T04:25:11;6.80;;;3.08;;
11598;SDS011;5855;48.840;9.188;2024-02-21T04:27:38;6.45;;;2.90;;
11598;SDS011;5855;48.840;9.188;2024-02-21T04:30:06;6.55;;;2.92;;
11598;SDS011;5855;48.840;9.188;2024-02-21T04:32:34;7.82;;;3.15;;
11598;SDS011;5855;48.840;9.188;2024-02-21T04:35:01;8.90;;;3.00;;
11598;SDS011;5855;48.840;9.188;2024-02-21T04:37:28;9.32;;;3.10;;
11598;SDS011;5855;48.840;9.188;2024-02-21T04:39:55;6.45;;;2.67;;
11598;SDS011;5855;48.840;9.188;2024-02-21T04:42:24;5.88;;;2.90;;
11598;SDS011;5855;48.840;9.188;2024-02-21T04:44:50;10.02;;;3.17;;
11598;SDS011;5855;48.840;9.188;2024-02-21T04:47:16;6.25;;;3.13;;
11598;SDS011;5855;48.840;9.188;2024-02-21T04:49:44;8.02;;;2.90;;
11598;SDS011;5855;48.840;9.188;2024-02-21T04:52:12;7.05;;;2.75;;
11598;SDS011;5855;48.840;9.188;2024-02-21T04:54:40;6.82;;;2.78;;
11598;SDS011;5855;48.840;9.188;2024-02-21T04:57:06;8.65;;;3.10;;
11598;SDS011;5855;48.840;9.188;2024-02-21T04:59:36;5.90;;;2.63;;
11598;SDS011;5855;48.840;9.188;2024-02-21T05:02:05;6.60;;;2.88;;
11598;SDS011;5855;48.840;9.188;2024-02-21T05:04:32;5.53;;;2.78;;
11598;SDS011;5855;48.840;9.188;2024-02-21T05:06:59;4.55;;;2.60;;
11598;SDS011;5855;48.840;9.188;2024-02-21T05:09:30;5.18;;;2.60;;
11598;SDS011;5855;48.840;9.188;2024-02-21T05:11:57;8.18;;;2.88;;
11598;SDS011;5855;48.840;9.188;2024-02-21T05:14:25;5.00;;;2.50;;
11598;SDS011;5855;48.840;9.188;2024-02-21T05:16:54;6.30;;;2.70;;
11598;SDS011;5855;48.840;9.188;2024-02-21T05:19:21;4.57;;;2.60;;
11598;SDS011;5855;48.840;9.188;2024-02-21T05:21:47;5.80;;;2.78;;
11598;SDS011;5855;48.840;9.188;2024-02-21T05:24:14;6.80;;;3.05;;
11598;SDS011;5855;48.840;9.188;2024-02-21T05:26:41;7.50;;;3.25;;
11598;SDS011;5855;48.840;9.188;2024-02-21T05:29:08;4.97;;;2.70;;
11598;SDS011;5855;48.840;9.188;2024-02-21T05:31:43;6.13;;;2.90;;
11598;SDS011;5855;48.840;9.188;2024-02-21T05:34:23;7.30;;;2.90;;
11598;SDS011;5855;48.840;9.188;2024-02-21T05:36:50;9.32;;;3.28;;
11598;SDS011;5855;48.840;9.188;2024-02-21T05:39:17;7.13;;;3.10;;
11598;SDS011;5855;48.840;9.188;2024-02-21T05:41:44;6.68;;;2.78;;
11598;SDS011;5855;48.840;9.188;2024-02-21T05:44:14;6.38;;;2.95;;
11598;SDS011;5855;48.840;9.188;2024-02-21T05:46:47;9.20;;;3.22;;
11598;SDS011;5855;48.840;9.188;2024-02-21T05:49:15;6.95;;;2.83;;
11598;SDS011;5855;48.840;9.188;2024-02-21T05:51:42;5.90;;;2.47;;
11598;SDS011;5855;48.840;9.188;2024-02-21T05:54:18;5.30;;;2.45;;
11598;SDS011;5855;48.840;9.188;2024-02-21T05:56:45;4.82;;;2.60;;
11598;SDS011;5855;48.840;9.188;2024-02-21T05:59:12;9.30;;;2.85;;
11598;SDS011;5855;48.840;9.188;2024-02-21T06:01:39;5.75;;;2.45;;
11598;SDS011;5855;48.840;9.188;2024-02-21T06:04:06;7.57;;;2.80;;
11598;SDS011;5855;48.840;9.188;2024-02-21T06:06:35;7.63;;;3.13;;
11598;SDS011;5855;48.840;9.188;2024-02-21T06:09:02;3.50;;;2.60;;
11598;SDS011;5855;48.840;9.188;2024-02-21T06:11:33;6.20;;;2.65;;
11598;SDS011;5855;48.840;9.188;2024-02-21T06:14:04;8.13;;;2.97;;
11598;SDS011;5855;48.840;9.188;2024-02-21T06:16:41;5.53;;;2.33;;
11598;SDS011;5855;48.840;9.188;2024-02-21T06:19:09;6.18;;;2.30;;
11598;SDS011;5855;48.840;9.188;2024-02-21T06:21:37;6.25;;;2.65;;
11598;SDS011;5855;48.840;9.188;2024-02-21T06:24:04;7.22;;;2.95;;
11598;SDS011;5855;48.840;9.188;2024-02-21T06:26:43;6.95;;;2.40;;
11598;SDS011;5855;48.840;9.188;2024-02-21T06:29:10;5.72;;;2.38;;
11598;SDS011;5855;48.840;9.188;2024-02-21T06:31:38;5.63;;;2.45;;
11598;SDS011;5855;48.840;9.188;2024-02-21T06:34:06;6.13;;;2.80;;
11598;SDS011;5855;48.840;9.188;2024-02-21T06:36:32;6.13;;;2.70;;
11598;SDS011;5855;48.840;9.188;2024-02-21T06:38:59;9.55;;;3.10;;
11598;SDS011;5855;48.840;9.188;2024-02-21T06:41:26;5.75;;;2.60;;
11598;SDS011;5855;48.840;9.188;2024-02-21T06:43:59;7.80;;;2.70;;
11598;SDS011;5855;48.840;9.188;2024-02-21T06:46:26;6.93;;;3.05;;
11598;SDS011;5855;48.840;9.188;2024-02-21T06:48:56;7.95;;;2.80;;
11598;SDS011;5855;48.840;9.188;2024-02-21T06:51:25;7.60;;;3.08;;
11598;SDS011;5855;48.840;9.188;2024-02-21T06:53:52;8.13;;;3.00;;
11598;SDS011;5855;48.840;9.188;2024-02-21T06:56:19;5.80;;;2.45;;
11598;SDS011;5855;48.840;9.188;2024-02-21T06:58:46;5.82;;;2.72;;
11598;SDS011;5855;48.840;9.188;2024-02-21T07:01:14;8.00;;;3.08;;
11598;SDS011;5855;48.840;9.188;2024-02-21T07:03:41;5.20;;;2.47;;
11598;SDS011;5855;48.840;9.188;2024-02-21T07:06:08;9.15;;;2.90;;
11598;SDS011;5855;48.840;9.188;2024-02-21T07:08:35;5.68;;;2.47;;
11598;SDS011;5855;48.840;9.188;2024-02-21T07:11:02;6.70;;;2.88;;
11598;SDS011;5855;48.840;9.188;2024-02-21T07:13:29;8.80;;;3.40;;
11598;SDS011;5855;48.840;9.188;2024-02-21T07:15:57;9.77;;;3.78;;
11598;SDS011;5855;48.840;9.188;2024-02-21T07:18:25;5.47;;;2.97;;
11598;SDS011;5855;48.840;9.188;2024-02-21T07:23:40;6.10;;;2.50;;
11598;SDS011;5855;48.840;9.188;2024-02-21T07:26:07;10.23;;;3.20;;
11598;SDS011;5855;48.840;9.188;2024-02-21T07:28:37;7.70;;;2.28;;
11598;SDS011;5855;48.840;9.188;2024-02-21T07:31:06;5.03;;;2.10;;
11598;SDS011;5855;48.840;9.188;2024-02-21T07:33:34;8.00;;;2.70;;
11598;SDS011;5855;48.840;9.188;2024-02-21T07:36:05;6.60;;;2.22;;
11598;SDS011;5855;48.840;9.188;2024-02-21T07:38:32;6.38;;;2.55;;
11598;SDS011;5855;48.840;9.188;2024-02-21T07:40:59;6.68;;;2.42;;
11598;SDS011;5855;48.840;9.188;2024-02-21T07:43:26;11.43;;;2.63;;
11598;SDS011;5855;48.840;9.188;2024-02-21T07:45:57;6.35;;;2.38;;
11598;SDS011;5855;48.840;9.188;2024-02-21T07:48:24;7.85;;;2.58;;
11598;SDS011;5855;48.840;9.188;2024-02-21T07:50:53;5.38;;;2.40;;
11598;SDS011;5855;48.840;9.188;2024-02-21T07:53:20;4.15;;;2.20;;
11598;SDS011;5855;48.840;9.188;2024-02-21T07:55:47;5.93;;;2.28;;
11598;SDS011;5855;48.840;9.188;2024-02-21T07:58:13;6.47;;;2.15;;
11598;SDS011;5855;48.840;9.188;2024-02-21T08:00:40;4.65;;;2.10;;
11598;SDS011;5855;48.840;9.188;2024-02-21T08:03:07;6.18;;;1.92;;
11598;SDS011;5855;48.840;9.188;2024-02-21T08:05:36;7.68;;;2.28;;
11598;SDS011;5855;48.840;9.188;2024-02-21T08:08:04;5.40;;;2.17;;
11598;SDS011;5855;48.840;9.188;2024-02-21T08:10:32;6.15;;;2.08;;
11598;SDS011;5855;48.840;9.188;2024-02-21T08:12:59;6.07;;;2.05;;
11598;SDS011;5855;48.840;9.188;2024-02-21T08:15:26;4.88;;;2.00;;
11598;SDS011;5855;48.840;9.188;2024-02-21T08:17:54;4.97;;;1.85;;
11598;SDS011;5855;48.840;9.188;2024-02-21T08:20:24;7.10;;;1.90;;
11598;SDS011;5855;48.840;9.188;2024-02-21T08:22:52;3.85;;;1.80;;
11598;SDS011;5855;48.840;9.188;2024-02-21T08:25:22;7.30;;;2.10;;
11598;SDS011;5855;48.840;9.188;2024-02-21T08:27:48;6.68;;;2.00;;
11598;SDS011;5855;48.840;9.188;2024-02-21T08:30:16;6.30;;;1.90;;
11598;SDS011;5855;48.840;9.188;2024-02-21T08:32:44;4.63;;;1.92;;
11598;SDS011;5855;48.840;9.188;2024-02-21T08:35:11;5.28;;;2.15;;
11598;SDS011;5855;48.840;9.188;2024-02-21T08:37:38;7.57;;;2.47;;
11598;SDS011;5855;48.840;9.188;2024-02-21T08:40:05;6.95;;;2.20;;
11598;SDS011;5855;48.840;9.188;2024-02-21T08:42:35;7.82;;;2.38;;
11598;SDS011;5855;48.840;9.188;2024-02-21T08:45:05;3.92;;;1.83;;
11598;SDS011;5855;48.840;9.188;2024-02-21T08:47:33;5.43;;;1.95;;
11598;SDS011;5855;48.840;9.188;2024-02-21T08:50:01;6.65;;;2.30;;
11598;SDS011;5855;48.840;9.188;2024-02-21T08:52:31;5.45;;;2.10;;
11598;SDS011;5855;48.840;9.188;2024-02-21T08:54:58;6.45;;;2.00;;
11598;SDS011;5855;48.840;9.188;2024-02-21T08:57:25;6.47;;;2.08;;
11598;SDS011;5855;48.840;9.188;2024-02-21T09:00:02;6.60;;;2.35;;
11598;SDS011;5855;48.840;9.188;2024-02-21T09:02:34;5.57;;;2.03;;
11598;SDS011;5855;48.840;9.188;2024-02-21T09:05:02;5.05;;;2.10;;
11598;SDS011;5855;48.840;9.188;2024-02-21T09:07:31;8.25;;;2.40;;
11598;SDS011;5855;48.840;9.188;2024-02-21T09:10:00;5.38;;;2.22;;
11598;SDS011;5855;48.840;9.188;2024-02-21T09:12:27;7.75;;;2.30;;
11598;SDS011;5855;48.840;9.188;2024-02-21T09:14:58;6.57;;;2.40;;
11598;SDS011;5855;48.840;9.188;2024-02-21T09:17:27;5.13;;;2.10;;
11598;SDS011;5855;48.840;9.188;2024-02-21T09:19:54;5.25;;;1.90;;
11598;SDS011;5855;48.840;9.188;2024-02-21T09:22:24;7.13;;;2.17;;
11598;SDS011;5855;48.840;9.188;2024-02-21T09:24:50;6.72;;;2.42;;
11598;SDS011;5855;48.840;9.188;2024-02-21T09:27:17;6.25;;;2.40;;
11598;SDS011;5855;48.840;9.188;2024-02-21T09:29:47;5.95;;;2.05;;
11598;SDS011;5855;48.840;9.188;2024-02-21T09:32:14;4.35;;;1.90;;
11598;SDS011;5855;48.840;9.188;2024-02-21T09:34:42;6.35;;;2.10;;
11598;SDS011;5855;48.840;9.188;2024-02-21T09:37:10;6.28;;;2.30;;
11598;SDS011;5855;48.840;9.188;2024-02-21T09:39:37;7.35;;;2.15;;
11598;SDS011;5855;48.840;9.188;2024-02-21T09:42:05;8.18;;;2.10;;
11598;SDS011;5855;48.840;9.188;2024-02-21T09:44:34;7.15;;;2.20;;
11598;SDS011;5855;48.840;9.188;2024-02-21T09:47:04;5.38;;;2.00;;
11598;SDS011;5855;48.840;9.188;2024-02-21T09:49:36;4.30;;;2.00;;
11598;SDS011;5855;48.840;9.188;2024-02-21T09:52:06;3.92;;;1.85;;
11598;SDS011;5855;48.840;9.188;2024-02-21T09:54:34;6.55;;;2.25;;
11598;SDS011;5855;48.840;9.188;2024-02-21T09:57:02;5.28;;;2.15;;
11598;SDS011;5855;48.840;9.188;2024-02-21T09:59:30;3.78;;;2.20;;
11598;SDS011;5855;48.840;9.188;2024-02-21T10:02:00;8.27;;;2.35;;
11598;SDS011;5855;48.840;9.188;2024-02-21T10:04:28;3.92;;;1.85;;
11598;SDS011;5855;48.840;9.188;2024-02-21T10:06:55;7.68;;;2.00;;
11598;SDS011;5855;48.840;9.188;2024-02-21T10:09:24;6.90;;;2.20;;
11598;SDS011;5855;48.840;9.188;2024-02-21T10:11:52;4.07;;;1.85;;
11598;SDS011;5855;48.840;9.188;2024-02-21T10:14:20;4.13;;;1.80;;
11598;SDS011;5855;48.840;9.188;2024-02-21T10:16:47;5.50;;;1.92;;
11598;SDS011;5855;48.840;9.188;2024-02-21T10:19:17;3.55;;;1.50;;
11598;SDS011;5855;48.840;9.188;2024-02-21T10:21:57;5.90;;;1.90;;
11598;SDS011;5855;48.840;9.188;2024-02-21T10:24:27;6.68;;;1.88;;
11598;SDS011;5855;48.840;9.188;2024-02-21T10:26:58;4.60;;;1.73;;
11598;SDS011;5855;48.840;9.188;2024-02-21T10:29:29;4.75;;;1.80;;
11598;SDS011;5855;48.840;9.188;2024-02-21T10:32:06;6.05;;;2.10;;
11598;SDS011;5855;48.840;9.188;2024-02-21T10:34:36;7.43;;;2.35;;
11598;SDS011;5855;48.840;9.188;2024-02-21T10:37:04;5.25;;;2.10;;
11598;SDS011;5855;48.840;9.188;2024-02-21T10:39:36;5.75;;;1.83;;
11598;SDS011;5855;48.840;9.188;2024-02-21T10:42:04;6.32;;;2.00;;
11598;SDS011;5855;48.840;9.188;2024-02-21T10:44:32;3.80;;;1.80;;
11598;SDS011;5855;48.840;9.188;2024-02-21T10:47:03;3.40;;;1.60;;
11598;SDS011;5855;48.840;9.188;2024-02-21T10:49:35;4.03;;;1.83;;
11598;SDS011;5855;48.840;9.188;2024-02-21T10:52:06;5.32;;;1.75;;
11598;SDS011;5855;48.840;9.188;2024-02-21T10:54:43;7.95;;;2.10;;
11598;SDS011;5855;48.840;9.188;2024-02-21T10:57:12;4.65;;;1.85;;
11598;SDS011;5855;48.840;9.188;2024-02-21T10:59:40;6.05;;;2.05;;
11598;SDS011;5855;48.840;9.188;2024-02-21T11:02:07;5.50;;;1.92;;
11598;SDS011;5855;48.840;9.188;2024-02-21T11:04:34;3.92;;;1.90;;
11598;SDS011;5855;48.840;9.188;2024-02-21T11:07:02;6.20;;;2.00;;
11598;SDS011;5855;48.840;9.188;2024-02-21T11:09:30;5.35;;;2.03;;
11598;SDS011;5855;48.840;9.188;2024-02-21T11:12:01;6.32;;;1.80;;
11598;SDS011;5855;48.840;9.188;2024-02-21T11:14:29;5.22;;;1.77;;
11598;SDS011;5855;48.840;9.188;2024-02-21T11:17:01;6.32;;;1.70;;
11598;SDS011;5855;48.840;9.188;2024-02-21T11:19:32;4.30;;;1.60;;
11598;SDS011;5855;48.840;9.188;2024-02-21T11:21:59;4.80;;;1.90;;
11598;SDS011;5855;48.840;9.188;2024-02-21T11:24:27;4.93;;;1.90;;
11598;SDS011;5855;48.840;9.188;2024-02-21T11:26:55;7.20;;;2.00;;
11598;SDS011;5855;48.840;9.188;2024-02-21T11:29:26;5.82;;;1.98;;
11598;SDS011;5855;48.840;9.188;2024-02-21T11:31:56;4.45;;;1.85;;
11598;SDS011;5855;48.840;9.188;2024-02-21T11:34:23;5.63;;;1.85;;
11598;SDS011;5855;48.840;9.188;2024-02-21T11:36:51;4.20;;;1.88;;
11598;SDS011;5855;48.840;9.188;2024-02-21T11:39:19;4.30;;;1.67;;
11598;SDS011;5855;48.840;9.188;2024-02-21T11:41:48;3.47;;;1.80;;
11598;SDS011;5855;48.840;9.188;2024-02-21T11:44:30;3.80;;;1.80;;
11598;SDS011;5855;48.840;9.188;2024-02-21T11:46:58;7.07;;;1.85;;
11598;SDS011;5855;48.840;9.188;2024-02-21T11:49:25;3.30;;;1.42;;
11598;SDS011;5855;48.840;9.188;2024-02-21T11:51:57;2.67;;;1.50;;
11598;SDS011;5855;48.840;9.188;2024-02-21T11:54:29;6.10;;;1.90;;
11598;SDS011;5855;48.840;9.188;2024-02-21T11:56:56;4.13;;;1.80;;
11598;SDS011;5855;48.840;9.188;2024-02-21T11:59:23;5.25;;;1.80;;
11598;SDS011;5855;48.840;9.188;2024-02-21T12:01:52;4.07;;;1.77;;
11598;SDS011;5855;48.840;9.188;2024-02-21T12:04:19;4.35;;;1.70;;
11598;SDS011;5855;48.840;9.188;2024-02-21T12:06:48;3.88;;;1.33;;
11598;SDS011;5855;48.840;9.188;2024-02-21T12:09:16;4.07;;;1.45;;
11598;SDS011;5855;48.840;9.188;2024-02-21T12:11:43;4.47;;;1.60;;
11598;SDS011;5855;48.840;9.188;2024-02-21T12:14:15;5.13;;;1.90;;
11598;SDS011;5855;48.840;9.188;2024-02-21T12:16:45;2.85;;;1.60;;
11598;SDS011;5855;48.840;9.188;2024-02-21T12:19:15;3.08;;;1.60;;
11598;SDS011;5855;48.840;9.188;2024-02-21T12:21:43;4.95;;;1.70;;
11598;SDS011;5855;48.840;9.188;2024-02-21T12:24:14;4.35;;;1.40;;
11598;SDS011;5855;48.840;9.188;2024-02-21T12:26:47;3.85;;;1.60;;
11598;SDS011;5855;48.840;9.188;2024-02-21T12:29:14;6.63;;;2.15;;
11598;SDS011;5855;48.840;9.188;2024-02-21T12:31:41;5.57;;;1.92;;
11598;SDS011;5855;48.840;9.188;2024-02-21T12:34:08;4.72;;;2.00;;
11598;SDS011;5855;48.840;9.188;2024-02-21T12:36:40;3.85;;;1.90;;
11598;SDS011;5855;48.840;9.188;2024-02-21T12:39:08;3.88;;;1.83;;
11598;SDS011;5855;48.840;9.188;2024-02-21T12:41:38;2.42;;;1.60;;
11598;SDS011;5855;48.840;9.188;2024-02-21T12:44:05;4.68;;;1.63;;
11598;SDS011;5855;48.840;9.188;2024-02-21T12:46:33;4.07;;;1.88;;
11598;SDS011;5855;48.840;9.188;2024-02-21T12:49:03;5.55;;;1.85;;
11598;SDS011;5855;48.840;9.188;2024-02-21T12:51:30;3.00;;;1.52;;
11598;SDS011;5855;48.840;9.188;2024-02-21T12:53:59;4.88;;;1.40;;
11598;SDS011;5855;48.840;9.188;2024-02-21T12:56:26;4.72;;;1.60;;
11598;SDS011;5855;48.840;9.188;2024-02-21T12:58:54;2.60;;;1.30;;
11598;SDS011;5855;48.840;9.188;2024-02-21T13:01:21;2.88;;;1.48;;
11598;SDS011;5855;48.840;9.188;2024-02-21T13:03:48;4.65;;;1.40;;
11598;SDS011;5855;48.840;9.188;2024-02-21T13:06:15;4.10;;;1.52;;
11598;SDS011;5855;48.840;9.188;2024-02-21T13:08:44;5.40;;;1.50;;
11598;SDS011;5855;48.840;9.188;2024-02-21T13:11:12;3.38;;;1.33;;
11598;SDS011;5855;48.840;9.188;2024-02-21T13:13:39;3.70;;;1.60;;
11598;SDS011;5855;48.840;9.188;2024-02-21T13:16:06;6.03;;;1.60;;
11598;SDS011;5855;48.840;9.188;2024-02-21T13:18:34;4.72;;;1.50;;
11598;SDS011;5855;48.840;9.188;2024-02-21T13:21:03;2.67;;;1.30;;
11598;SDS011;5855;48.840;9.188;2024-02-21T13:23:30;3.72;;;1.58;;
11598;SDS011;5855;48.840;9.188;2024-02-21T13:25:57;3.35;;;1.27;;
11598;SDS011;5855;48.840;9.188;2024-02-21T13:28:25;4.70;;;1.27;;
11598;SDS011;5855;48.840;9.188;2024-02-21T13:30:56;1.83;;;1.20;;
11598;SDS011;5855;48.840;9.188;2024-02-21T13:33:23;5.60;;;1.67;;
11598;SDS011;5855;48.840;9.188;2024-02-21T13:35:53;2.88;;;1.40;;
11598;SDS011;5855;48.840;9.188;2024-02-21T13:38:27;1.75;;;1.30;;
11598;SDS011;5855;48.840;9.188;2024-02-21T13:40:55;1.85;;;1.40;;
11598;SDS011;5855;48.840;9.188;2024-02-21T13:43:22;3.53;;;1.25;;
11598;SDS011;5855;48.840;9.188;2024-02-21T13:45:55;2.00;;;1.10;;
11598;SDS011;5855;48.840;9.188;2024-02-21T13:48:27;3.28;;;1.40;;
11598;SDS011;5855;48.840;9.188;2024-02-21T13:50:55;2.95;;;1.55;;
11598;SDS011;5855;48.840;9.188;2024-02-21T13:53:28;3.83;;;1.27;;
11598;SDS011;5855;48.840;9.188;2024-02-21T13:55:55;3.85;;;1.50;;
11598;SDS011;5855;48.840;9.188;2024-02-21T13:58:22;3.22;;;1.30;;
11598;SDS011;5855;48.840;9.188;2024-02-21T14:00:51;2.45;;;1.35;;
11598;SDS011;5855;48.840;9.188;2024-02-21T14:03:19;2.97;;;1.23;;
11598;SDS011;5855;48.840;9.188;2024-02-21T14:05:50;2.25;;;1.15;;
11598;SDS011;5855;48.840;9.188;2024-02-21T14:08:18;3.90;;;1.20;;
11598;SDS011;5855;48.840;9.188;2024-02-21T14:10:51;3.33;;;1.30;;
11598;SDS011;5855;48.840;9.188;2024-02-21T14:13:18;2.47;;;1.30;;
11598;SDS011;5855;48.840;9.188;2024-02-21T14:15:45;3.30;;;1.40;;
11598;SDS011;5855;48.840;9.188;2024-02-21T14:18:20;2.08;;;1.42;;
11598;SDS011;5855;48.840;9.188;2024-02-21T14:20:49;3.58;;;1.30;;
11598;SDS011;5855;48.840;9.188;2024-02-21T14:23:17;1.52;;;1.13;;
11598;SDS011;5855;48.840;9.188;2024-02-21T14:25:46;2.15;;;1.23;;
11598;SDS011;5855;48.840;9.188;2024-02-21T14:28:15;2.50;;;1.38;;
11598;SDS011;5855;48.840;9.188;2024-02-21T14:30:44;2.47;;;1.35;;
11598;SDS011;5855;48.840;9.188;2024-02-21T14:33:14;3.95;;;1.45;;
11598;SDS011;5855;48.840;9.188;2024-02-21T14:35:42;2.28;;;1.38;;
11598;SDS011;5855;48.840;9.188;2024-02-21T14:38:09;3.92;;;1.50;;
11598;SDS011;5855;48.840;9.188;2024-02-21T14:40:44;3.47;;;1.40;;
11598;SDS011;5855;48.840;9.188;2024-02-21T14:43:11;2.05;;;1.20;;
11598;SDS011;5855;48.840;9.188;2024-02-21T14:45:38;2.38;;;1.30;;
11598;SDS011;5855;48.840;9.188;2024-02-21T14:48:18;1.80;;;1.10;;
11598;SDS011;5855;48.840;9.188;2024-02-21T14:50:49;3.90;;;1.30;;
11598;SDS011;5855;48.840;9.188;2024-02-21T14:53:16;2.35;;;1.20;;
11598;SDS011;5855;48.840;9.188;2024-02-21T14:55:44;3.13;;;1.10;;
11598;SDS011;5855;48.840;9.188;2024-02-21T14:58:11;2.60;;;1.13;;
11598;SDS011;5855;48.840;9.188;2024-02-21T15:00:42;1.10;;;1.00;;
11598;SDS011;5855;48.840;9.188;2024-02-21T15:03:09;1.75;;;1.10;;
11598;SDS011;5855;48.840;9.188;2024-02-21T15:05:43;2.15;;;1.15;;
11598;SDS011;5855;48.840;9.188;2024-02-21T15:08:33;2.15;;;1.20;;
11598;SDS011;5855;48.840;9.188;2024-02-21T15:11:01;1.73;;;1.00;;